createdAt,value
2019-05-20T00:01:37.863Z,37.13
2019-05-20T00:04:06.839Z,39.20
2019-05-20T00:06:35.794Z,41.77
2019-05-20T00:09:05.847Z,38.73
2019-05-20T00:11:34.823Z,37.97
2019-05-20T00:14:03.750Z,39.00
2019-05-20T00:16:32.619Z,44.70
2019-05-20T00:19:01.516Z,43.77
2019-05-20T00:21:30.429Z,39.07
2019-05-20T00:23:59.327Z,43.90
2019-05-20T00:26:28.250Z,38.27
2019-05-20T00:28:57.166Z,40.93
2019-05-20T00:31:26.125Z,38.20
2019-05-20T00:33:55.007Z,40.87
2019-05-20T00:36:23.917Z,38.13
2019-05-20T00:39:18.085Z,38.30
2019-05-20T00:41:46.982Z,37.87
2019-05-20T00:44:15.947Z,42.43
2019-05-20T00:46:44.859Z,40.00
2019-05-20T00:49:13.766Z,38.33
2019-05-20T00:51:42.678Z,39.97
2019-05-20T00:54:11.559Z,39.60
2019-05-20T00:56:40.475Z,48.28
2019-05-20T00:59:09.449Z,43.53
2019-05-20T01:01:38.363Z,48.05
2019-05-20T01:04:07.329Z,43.50
2019-05-20T01:06:36.233Z,47.30
2019-05-20T01:09:07.463Z,44.20
2019-05-20T01:11:36.392Z,45.07
2019-05-20T01:14:05.708Z,49.87
2019-05-20T01:16:34.599Z,44.80
2019-05-20T01:19:03.540Z,48.43
2019-05-20T01:21:32.470Z,45.70
2019-05-20T01:24:01.389Z,46.43
2019-05-20T01:26:30.281Z,48.27
2019-05-20T01:28:59.197Z,44.27
2019-05-20T01:31:28.121Z,43.77
2019-05-20T01:33:57.055Z,47.43
2019-05-20T01:36:25.953Z,51.88
2019-05-20T01:38:54.851Z,49.23
2019-05-20T01:41:23.852Z,47.33
2019-05-20T01:43:52.744Z,47.63
2019-05-20T01:46:21.660Z,47.47
2019-05-20T01:48:50.550Z,49.30
2019-05-20T01:51:19.463Z,47.60
2019-05-20T01:53:48.391Z,45.03
2019-05-20T01:56:17.303Z,48.60
2019-05-20T01:58:46.200Z,46.67
2019-05-20T02:01:15.121Z,46.10
2019-05-20T02:03:44.045Z,42.63
2019-05-20T02:06:13.002Z,47.67
2019-05-20T02:08:41.929Z,46.53
2019-05-20T02:11:10.822Z,47.50
2019-05-20T02:13:57.185Z,45.93
2019-05-20T02:16:26.464Z,45.70
2019-05-20T02:18:55.374Z,52.20
2019-05-20T02:21:24.257Z,46.17
2019-05-20T02:23:53.197Z,49.23
2019-05-20T02:26:22.142Z,42.27
2019-05-20T02:28:51.065Z,41.73
2019-05-20T02:31:20.009Z,39.73
2019-05-20T02:33:52.249Z,39.97
2019-05-20T02:36:17.830Z,42.17
2019-05-20T02:38:46.738Z,41.83
2019-05-20T02:41:15.641Z,39.93
2019-05-20T02:43:44.584Z,40.93
2019-05-20T02:46:13.487Z,36.83
2019-05-20T02:48:42.431Z,37.80
2019-05-20T02:51:11.334Z,39.50
2019-05-20T02:53:40.240Z,39.13
2019-05-20T02:56:09.125Z,38.97
2019-05-20T02:58:38.043Z,42.47
2019-05-20T03:01:07.069Z,38.40
2019-05-20T03:03:35.932Z,43.68
2019-05-20T03:06:04.862Z,40.57
2019-05-20T03:08:33.796Z,41.57
2019-05-20T03:11:02.777Z,38.53
2019-05-20T03:13:31.634Z,45.58
2019-05-20T03:16:00.546Z,42.33
2019-05-20T03:18:29.454Z,39.87
2019-05-20T03:20:58.357Z,39.17
2019-05-20T03:23:27.271Z,40.77
2019-05-20T03:25:56.202Z,38.97
2019-05-20T03:28:25.118Z,41.00
2019-05-20T03:30:54.061Z,36.80
2019-05-20T03:33:22.959Z,39.57
2019-05-20T03:35:51.881Z,36.87
2019-05-20T03:38:20.773Z,37.27
2019-05-20T03:40:49.755Z,37.53
2019-05-20T03:43:18.595Z,36.90
2019-05-20T03:45:47.533Z,40.93
2019-05-20T03:48:16.408Z,40.53
2019-05-20T03:50:45.327Z,40.27
2019-05-20T03:53:14.235Z,42.83
2019-05-20T03:55:43.998Z,40.47
2019-05-20T03:58:13.832Z,38.27
2019-05-20T04:00:43.171Z,39.80
2019-05-20T04:03:12.097Z,42.03
2019-05-20T04:05:41.022Z,44.53
2019-05-20T04:08:09.930Z,39.80
2019-05-20T04:10:38.866Z,40.87
2019-05-20T04:13:07.868Z,40.33
2019-05-20T04:15:36.772Z,40.50
2019-05-20T04:18:05.714Z,42.10
2019-05-20T04:20:34.619Z,43.23
2019-05-20T04:23:03.608Z,42.20
2019-05-20T04:25:32.537Z,42.40
2019-05-20T04:28:01.424Z,40.03
2019-05-20T04:30:30.338Z,40.27
2019-05-20T04:32:59.252Z,42.43
2019-05-20T04:35:28.172Z,44.13
2019-05-20T04:37:57.071Z,40.37
2019-05-20T04:40:25.996Z,45.63
2019-05-20T04:42:54.907Z,51.33
2019-05-20T04:45:23.823Z,44.60
2019-05-20T04:47:52.732Z,48.93
2019-05-20T04:50:21.648Z,49.48
2019-05-20T04:52:50.533Z,49.27
2019-05-20T04:55:19.425Z,46.07
2019-05-20T04:57:48.351Z,44.57
2019-05-20T05:00:20.139Z,43.20
2019-05-20T05:02:49.048Z,47.30
2019-05-20T05:05:17.989Z,42.27
2019-05-20T05:07:46.929Z,43.87
2019-05-20T05:10:15.842Z,44.57
2019-05-20T05:12:44.750Z,41.40
2019-05-20T05:15:13.668Z,44.43
2019-05-20T05:17:42.581Z,47.50
2019-05-20T05:20:18.221Z,47.53
2019-05-20T05:22:40.438Z,45.73
2019-05-20T05:25:09.499Z,51.30
2019-05-20T05:27:38.410Z,46.33
2019-05-20T05:30:07.608Z,50.03
2019-05-20T05:32:42.951Z,48.70
2019-05-20T05:35:13.059Z,47.23
2019-05-20T05:37:41.977Z,46.20
2019-05-20T05:40:10.918Z,47.13
2019-05-20T05:42:39.827Z,48.27
2019-05-20T05:45:08.927Z,50.53
2019-05-20T05:47:37.847Z,52.50
2019-05-20T05:50:06.992Z,49.77
2019-05-20T05:52:35.854Z,49.17
2019-05-20T05:55:04.861Z,52.50
2019-05-20T05:57:33.760Z,60.73
2019-05-20T06:00:02.721Z,55.73
2019-05-20T06:02:31.610Z,56.00
2019-05-20T06:05:00.515Z,55.93
2019-05-20T06:07:29.449Z,53.80
2019-05-20T06:09:58.344Z,67.27
2019-05-20T06:12:27.280Z,57.70
2019-05-20T06:14:56.179Z,54.17
2019-05-20T06:17:25.097Z,57.07
2019-05-20T06:19:54.002Z,60.47
2019-05-20T06:22:22.915Z,49.23
2019-05-20T06:24:51.853Z,49.33
2019-05-20T06:27:20.710Z,52.27
2019-05-20T06:29:49.604Z,53.97
2019-05-20T06:32:18.520Z,46.97
2019-05-20T06:34:47.421Z,45.60
2019-05-20T06:37:16.335Z,47.13
2019-05-20T06:39:45.242Z,44.70
2019-05-20T06:42:14.128Z,48.67
2019-05-20T06:44:52.174Z,39.87
2019-05-20T06:47:11.935Z,41.30
2019-05-20T06:49:40.845Z,42.63
2019-05-20T06:52:09.890Z,44.77
2019-05-20T06:54:38.821Z,40.93
2019-05-20T06:57:07.937Z,39.20
2019-05-20T06:59:36.793Z,41.83
2019-05-20T07:02:05.814Z,39.87
2019-05-20T07:04:34.710Z,42.63
2019-05-20T07:07:12.443Z,38.27
2019-05-20T07:09:32.589Z,39.50
2019-05-20T07:12:01.499Z,36.23
2019-05-20T07:14:30.473Z,39.23
2019-05-20T07:17:00.428Z,40.78
2019-05-20T07:19:29.355Z,43.33
2019-05-20T07:21:58.334Z,42.33
2019-05-20T07:24:27.201Z,44.17
2019-05-20T07:26:56.107Z,45.20
2019-05-20T07:29:25.050Z,45.87
2019-05-20T07:31:53.944Z,47.07
2019-05-20T07:34:22.874Z,48.47
2019-05-20T07:37:02.493Z,49.87
2019-05-20T07:39:20.693Z,52.60
2019-05-20T07:41:49.566Z,46.47
2019-05-20T07:44:18.459Z,50.17
2019-05-20T07:46:47.382Z,52.67
2019-05-20T07:49:16.398Z,49.50
2019-05-20T07:51:45.734Z,49.53
2019-05-20T07:54:14.531Z,48.90
2019-05-20T07:56:43.431Z,48.87
2019-05-20T07:59:12.364Z,44.33
2019-05-20T08:01:41.295Z,46.77
2019-05-20T08:04:10.199Z,50.20
2019-05-20T08:06:39.094Z,49.70
2019-05-20T08:09:08.214Z,49.10
2019-05-20T08:11:37.102Z,46.10
2019-05-20T08:14:06.254Z,46.27
2019-05-20T08:16:35.148Z,45.33
2019-05-20T08:19:04.198Z,52.15
2019-05-20T08:21:33.114Z,45.83
2019-05-20T08:24:02.439Z,44.80
2019-05-20T08:26:30.949Z,47.70
2019-05-20T08:28:59.835Z,47.67
2019-05-20T08:31:28.772Z,50.00
2019-05-20T08:33:57.710Z,46.57
2019-05-20T08:36:26.600Z,48.67
2019-05-20T08:38:55.498Z,47.63
2019-05-20T08:41:24.463Z,45.77
2019-05-20T08:43:53.406Z,47.17
2019-05-20T08:46:22.291Z,48.67
2019-05-20T08:48:51.230Z,47.93
2019-05-20T08:51:20.254Z,45.70
2019-05-20T08:53:49.163Z,47.20
2019-05-20T08:56:18.237Z,43.93
2019-05-20T08:58:47.257Z,47.47
2019-05-20T09:01:16.220Z,47.50
2019-05-20T09:03:45.112Z,43.67
2019-05-20T09:06:14.049Z,42.53
2019-05-20T09:08:44.476Z,38.53
2019-05-20T09:11:13.323Z,41.97
2019-05-20T09:13:42.254Z,39.27
2019-05-20T09:16:12.733Z,42.97
2019-05-20T09:18:41.632Z,39.03
2019-05-20T09:21:10.821Z,41.77
2019-05-20T09:23:39.621Z,42.73
2019-05-20T09:26:08.528Z,38.43
2019-05-20T09:28:37.450Z,40.07
2019-05-20T09:31:06.612Z,38.80
2019-05-20T09:33:35.887Z,37.87
2019-05-20T09:36:04.867Z,40.53
2019-05-20T09:38:36.901Z,34.60
2019-05-20T09:41:03.087Z,35.93
2019-05-20T09:43:32.138Z,41.77
2019-05-20T09:46:07.840Z,37.43
2019-05-20T09:48:30.080Z,35.47
2019-05-20T09:50:59.113Z,36.10
2019-05-20T09:53:28.050Z,31.57
2019-05-20T09:55:56.971Z,31.77
2019-05-20T09:58:25.899Z,31.80
2019-05-20T10:00:54.799Z,30.73
2019-05-20T10:03:23.713Z,30.50
2019-05-20T10:05:52.604Z,28.60
2019-05-20T10:08:36.147Z,27.93
2019-05-20T10:10:50.477Z,31.43
2019-05-20T10:13:19.384Z,30.70
2019-05-20T10:15:48.298Z,26.15
2019-05-20T10:18:35.631Z,23.43
2019-05-20T10:20:46.101Z,26.20
2019-05-20T10:23:15.985Z,26.10
2019-05-20T10:25:43.904Z,24.53
2019-05-20T10:28:12.845Z,24.33
2019-05-20T10:30:41.974Z,28.95
2019-05-20T10:33:11.081Z,26.60
2019-05-20T10:35:39.708Z,26.63
2019-05-20T10:38:08.690Z,24.20
2019-05-20T10:40:37.852Z,24.20
2019-05-20T10:43:07.080Z,25.05
2019-05-20T10:45:36.000Z,23.35
2019-05-20T10:48:08.594Z,26.68
2019-05-20T10:50:34.249Z,26.70
2019-05-20T10:53:03.159Z,27.17
2019-05-20T10:55:32.204Z,24.67
2019-05-20T10:58:00.994Z,26.20
2019-05-20T11:00:29.895Z,24.80
2019-05-20T11:02:58.808Z,23.52
2019-05-20T11:05:27.718Z,23.42
2019-05-20T11:07:56.870Z,25.88
2019-05-20T11:10:26.088Z,24.23
2019-05-20T11:12:55.200Z,23.35
2019-05-20T11:15:24.725Z,23.60
2019-05-20T11:17:53.942Z,25.02
2019-05-20T11:20:25.517Z,24.72
2019-05-20T11:22:54.787Z,27.35
2019-05-20T11:25:23.882Z,25.72
2019-05-20T11:27:53.073Z,23.92
2019-05-20T11:30:22.060Z,23.07
2019-05-20T11:32:51.005Z,23.33
2019-05-20T11:35:19.877Z,24.23
2019-05-20T11:37:48.760Z,26.02
2019-05-20T11:40:17.651Z,25.93
2019-05-20T11:42:46.577Z,28.30
2019-05-20T11:45:15.482Z,27.30
2019-05-20T11:47:44.531Z,27.10
2019-05-20T11:50:13.430Z,26.23
2019-05-20T11:52:42.346Z,26.07
2019-05-20T11:55:11.257Z,27.63
2019-05-20T11:57:40.186Z,29.03
2019-05-20T12:00:09.169Z,30.87
2019-05-20T12:02:38.111Z,30.40
2019-05-20T12:05:07.411Z,31.60
2019-05-20T12:07:36.288Z,32.87
2019-05-20T12:10:05.879Z,32.38
2019-05-20T12:12:34.764Z,33.60
2019-05-20T12:15:04.960Z,33.83
2019-05-20T12:17:32.874Z,30.90
2019-05-20T12:20:02.040Z,37.10
2019-05-20T12:22:35.411Z,30.67
2019-05-20T12:25:04.681Z,33.97
2019-05-20T12:27:33.609Z,31.67
2019-05-20T12:30:02.536Z,33.73
2019-05-20T12:32:31.580Z,33.47
2019-05-20T12:35:00.464Z,35.75
2019-05-20T12:37:29.365Z,33.20
2019-05-20T12:40:06.919Z,32.43
2019-05-20T12:42:27.358Z,32.65
2019-05-20T12:44:56.290Z,35.10
2019-05-20T12:47:25.200Z,33.80
2019-05-20T12:49:54.129Z,32.60
2019-05-20T12:52:23.031Z,33.40
2019-05-20T12:55:07.274Z,33.97
2019-05-20T12:57:20.837Z,30.50
2019-05-20T12:59:49.743Z,28.77
2019-05-20T13:02:18.634Z,29.00
2019-05-20T13:04:47.536Z,31.55
2019-05-20T13:07:16.431Z,30.95
2019-05-20T13:09:45.334Z,27.98
2019-05-20T13:12:14.243Z,28.57
2019-05-20T13:14:43.152Z,28.42
2019-05-20T13:17:12.088Z,27.43
2019-05-20T13:19:40.988Z,27.55
2019-05-20T13:22:09.954Z,29.00
2019-05-20T13:24:38.857Z,25.72
2019-05-20T13:27:07.901Z,29.18
2019-05-20T13:29:36.757Z,27.60
2019-05-20T13:32:05.912Z,27.52
2019-05-20T13:34:34.779Z,26.45
2019-05-20T13:37:03.692Z,27.77
2019-05-20T13:39:32.599Z,26.77
2019-05-20T13:42:01.485Z,26.50
2019-05-20T13:44:30.447Z,26.37
2019-05-20T13:46:59.314Z,27.20
2019-05-20T13:49:28.228Z,30.02
2019-05-20T13:51:57.153Z,26.82
2019-05-20T13:54:26.198Z,25.35
2019-05-20T13:56:54.950Z,25.40
2019-05-20T13:59:23.853Z,26.77
2019-05-20T14:01:52.739Z,26.82
2019-05-20T14:04:21.687Z,26.85
2019-05-20T14:06:50.558Z,26.60
2019-05-20T14:09:19.468Z,28.38
2019-05-20T14:11:48.372Z,28.05
2019-05-20T14:14:17.285Z,32.20
2019-05-20T14:16:46.168Z,29.40
2019-05-20T14:19:15.087Z,28.20
2019-05-20T14:21:43.966Z,28.77
2019-05-20T14:24:12.849Z,27.62
2019-05-20T14:26:41.751Z,28.02
2019-05-20T14:29:10.677Z,29.30
2019-05-20T14:31:39.617Z,32.38
2019-05-20T14:34:08.664Z,30.65
2019-05-20T14:36:39.883Z,27.98
2019-05-20T14:39:06.943Z,27.98
2019-05-20T14:41:35.886Z,29.45
2019-05-20T14:44:04.810Z,29.27
2019-05-20T14:46:33.706Z,28.52
2019-05-20T14:49:02.944Z,28.73
2019-05-20T14:51:31.540Z,30.12
2019-05-20T14:54:00.440Z,30.10
2019-05-20T14:56:29.367Z,27.73
2019-05-20T14:58:58.258Z,27.42
2019-05-20T15:01:27.156Z,25.32
2019-05-20T15:03:56.037Z,26.85
2019-05-20T15:06:24.963Z,26.75
2019-05-20T15:08:53.905Z,25.68
2019-05-20T15:11:37.172Z,27.27
2019-05-20T15:13:51.736Z,25.65
2019-05-20T15:16:20.669Z,25.68
2019-05-20T15:18:49.573Z,26.62
2019-05-20T15:21:18.771Z,24.45
2019-05-20T15:23:47.369Z,23.98
2019-05-20T15:26:16.255Z,25.32
2019-05-20T15:28:45.158Z,25.15
2019-05-20T15:31:14.062Z,27.17
2019-05-20T15:33:42.965Z,29.10
2019-05-20T15:36:11.878Z,25.48
2019-05-20T15:38:40.809Z,28.95
2019-05-20T15:41:09.716Z,26.95
2019-05-20T15:43:38.601Z,26.00
2019-05-20T15:46:07.663Z,25.35
2019-05-20T15:48:36.545Z,27.22
2019-05-20T15:51:05.462Z,31.33
2019-05-20T15:53:34.353Z,26.75
2019-05-20T15:56:03.362Z,29.57
2019-05-20T15:58:32.223Z,28.90
2019-05-20T16:01:01.122Z,32.67
2019-05-20T16:03:30.005Z,31.37
2019-05-20T16:05:59.973Z,32.48
2019-05-20T16:08:27.830Z,27.48
2019-05-20T16:10:56.740Z,28.92
2019-05-20T16:13:25.638Z,28.40
2019-05-20T16:15:54.541Z,27.22
2019-05-20T16:18:23.435Z,29.63
2019-05-20T16:20:52.331Z,29.35
2019-05-20T16:23:21.229Z,29.18
2019-05-20T16:25:50.133Z,30.37
2019-05-20T16:28:19.018Z,32.33
2019-05-20T16:30:47.928Z,29.60
2019-05-20T16:33:16.811Z,30.12
2019-05-20T16:35:45.726Z,31.23
2019-05-20T16:38:14.627Z,31.25
2019-05-20T16:40:43.565Z,34.03
2019-05-20T16:43:12.488Z,32.08
2019-05-20T16:45:41.387Z,34.73
2019-05-20T16:48:10.325Z,33.50
2019-05-20T16:50:39.213Z,33.38
2019-05-20T16:53:08.177Z,33.23
2019-05-20T16:55:37.094Z,36.20
2019-05-20T16:58:06.156Z,39.83
2019-05-20T17:00:35.057Z,38.30
2019-05-20T17:03:03.970Z,35.75
2019-05-20T17:05:32.969Z,41.15
2019-05-20T17:08:01.785Z,41.30
2019-05-20T17:10:30.699Z,40.23
2019-05-20T17:12:59.613Z,36.10
2019-05-20T17:15:28.515Z,38.80
2019-05-20T17:17:57.409Z,42.83
2019-05-20T17:20:26.313Z,44.30
2019-05-20T17:22:55.199Z,41.73
2019-05-20T17:25:24.149Z,42.03
2019-05-20T17:27:53.011Z,44.50
2019-05-20T17:30:21.891Z,38.80
2019-05-20T17:32:50.790Z,37.97
2019-05-20T17:35:19.691Z,41.17
2019-05-20T17:37:48.565Z,41.63
2019-05-20T17:40:17.479Z,46.20
2019-05-20T17:42:46.352Z,43.07
2019-05-20T17:45:15.264Z,46.93
2019-05-20T17:47:44.147Z,47.30
2019-05-20T17:50:13.067Z,43.87
2019-05-20T17:52:41.947Z,48.87
2019-05-20T17:55:10.826Z,51.33
2019-05-20T17:57:39.764Z,48.50
2019-05-20T18:00:08.755Z,50.53
2019-05-20T18:02:37.667Z,56.77
2019-05-20T18:05:06.764Z,50.37
2019-05-20T18:07:35.673Z,53.57
2019-05-20T18:10:04.968Z,55.67
2019-05-20T18:12:33.852Z,56.87
2019-05-20T18:15:03.496Z,50.13
2019-05-20T18:17:32.401Z,49.93
2019-05-20T18:20:01.330Z,54.40
2019-05-20T18:22:30.216Z,54.93
2019-05-20T18:24:59.139Z,52.17
2019-05-20T18:27:28.037Z,57.60
2019-05-20T18:29:56.948Z,50.07
2019-05-20T18:32:25.864Z,50.87
2019-05-20T18:34:54.777Z,49.43
2019-05-20T18:37:23.708Z,50.00
2019-05-20T18:39:52.605Z,45.17
2019-05-20T18:42:21.511Z,50.40
2019-05-20T18:44:50.434Z,44.00
2019-05-20T18:47:19.359Z,45.50
2019-05-20T18:49:48.242Z,46.43
2019-05-20T18:52:17.169Z,44.20
2019-05-20T18:54:46.086Z,43.63
2019-05-20T18:57:15.002Z,44.87
2019-05-20T18:59:43.902Z,43.93
2019-05-20T19:02:12.807Z,42.10
2019-05-20T19:04:41.772Z,42.03
2019-05-20T19:07:10.685Z,42.33
2019-05-20T19:09:39.571Z,41.63
2019-05-20T19:12:08.578Z,39.33
2019-05-20T19:14:37.469Z,44.83
2019-05-20T19:17:06.494Z,40.67
2019-05-20T19:19:35.392Z,43.40
2019-05-20T19:22:04.332Z,41.90
2019-05-20T19:24:33.310Z,45.97
2019-05-20T19:27:02.190Z,45.33
2019-05-20T19:29:31.044Z,46.97
2019-05-20T19:32:02.157Z,47.00
2019-05-20T19:34:28.877Z,45.80
2019-05-20T19:36:57.767Z,39.27
2019-05-20T19:39:26.680Z,43.53
2019-05-20T19:41:55.602Z,43.47
2019-05-20T19:44:24.538Z,39.73
2019-05-20T19:46:53.431Z,32.33
2019-05-20T19:49:22.325Z,36.40
2019-05-20T19:51:51.247Z,34.13
2019-05-20T19:54:20.134Z,36.80
2019-05-20T19:56:49.061Z,35.00
2019-05-20T19:59:17.976Z,35.47
2019-05-20T20:01:46.871Z,38.73
2019-05-20T20:04:15.794Z,39.90
2019-05-20T20:06:44.687Z,37.77
2019-05-20T20:09:13.597Z,38.63
2019-05-20T20:11:42.480Z,43.10
2019-05-20T20:14:11.460Z,43.23
2019-05-20T20:16:40.287Z,38.73
2019-05-20T20:19:09.333Z,38.47
2019-05-20T20:21:38.259Z,39.97
2019-05-20T20:24:09.428Z,42.07
2019-05-20T20:26:36.113Z,44.30
2019-05-20T20:29:05.129Z,40.27
2019-05-20T20:31:34.019Z,40.27
2019-05-20T20:34:02.897Z,42.17
2019-05-20T20:36:31.815Z,41.03
2019-05-20T20:39:00.708Z,41.00
2019-05-20T20:41:29.611Z,41.10
2019-05-20T20:43:58.529Z,36.57
2019-05-20T20:46:27.446Z,38.33
2019-05-20T20:48:56.328Z,44.25
2019-05-20T20:51:25.228Z,39.87
2019-05-20T20:53:54.152Z,36.37
2019-05-20T20:56:25.431Z,35.73
2019-05-20T20:58:51.987Z,35.77
2019-05-20T21:01:20.940Z,37.43
2019-05-20T21:03:49.857Z,32.97
2019-05-20T21:06:18.765Z,39.23
2019-05-20T21:08:47.732Z,34.00
2019-05-20T21:11:16.637Z,35.33
2019-05-20T21:13:45.572Z,37.53
2019-05-20T21:16:14.448Z,40.55
2019-05-20T21:18:43.384Z,37.97
2019-05-20T21:21:12.273Z,41.57
2019-05-20T21:23:41.177Z,40.00
2019-05-20T21:26:10.195Z,36.27
2019-05-20T21:28:39.075Z,39.50
2019-05-20T21:31:08.033Z,37.60
2019-05-20T21:33:36.923Z,37.00
2019-05-20T21:36:05.872Z,36.77
2019-05-20T21:38:34.787Z,35.33
2019-05-20T21:41:03.681Z,39.53
2019-05-20T21:43:32.600Z,37.43
2019-05-20T21:46:01.494Z,36.73
2019-05-20T21:48:30.413Z,40.23
2019-05-20T21:50:59.319Z,40.20
2019-05-20T21:53:28.235Z,34.87
2019-05-20T21:55:57.129Z,34.43
2019-05-20T21:58:26.052Z,36.77
2019-05-20T22:00:55.258Z,40.30
2019-05-20T22:03:25.265Z,32.23
2019-05-20T22:05:53.094Z,37.20
2019-05-20T22:08:21.990Z,33.07
2019-05-20T22:10:50.962Z,29.40
2019-05-20T22:13:19.815Z,31.37
2019-05-20T22:15:48.764Z,28.70
2019-05-20T22:18:17.651Z,29.50
2019-05-20T22:20:46.574Z,28.13
2019-05-20T22:23:49.632Z,33.00
2019-05-20T22:26:18.561Z,32.00
2019-05-20T22:28:47.477Z,28.67
2019-05-20T22:31:16.402Z,29.63
2019-05-20T22:33:45.281Z,36.30
2019-05-20T22:36:14.216Z,34.37
2019-05-20T22:38:43.120Z,29.80
2019-05-20T22:41:12.080Z,30.17
2019-05-20T22:43:40.960Z,28.77
2019-05-20T22:46:09.908Z,30.90
2019-05-20T22:48:38.820Z,30.33
2019-05-20T22:51:07.826Z,29.10
2019-05-20T22:53:36.729Z,26.20
2019-05-20T22:56:05.649Z,29.50
2019-05-20T22:58:38.262Z,27.50
2019-05-20T23:01:03.457Z,30.47
2019-05-20T23:03:32.369Z,33.63
2019-05-20T23:06:01.287Z,30.53
2019-05-20T23:08:30.175Z,29.30
2019-05-20T23:10:59.090Z,33.73
2019-05-20T23:13:27.970Z,28.97
2019-05-20T23:15:56.891Z,32.23
2019-05-20T23:18:25.810Z,30.33
2019-05-20T23:20:54.728Z,30.10
2019-05-20T23:23:23.674Z,37.33
2019-05-20T23:25:53.100Z,35.50
2019-05-20T23:28:21.437Z,39.67
2019-05-20T23:30:50.339Z,37.70
2019-05-20T23:33:19.269Z,41.13
2019-05-20T23:35:48.176Z,39.87
2019-05-20T23:38:17.164Z,38.63
2019-05-20T23:40:45.985Z,37.63
2019-05-20T23:43:14.899Z,39.00
2019-05-20T23:45:43.976Z,40.10
2019-05-20T23:48:12.883Z,40.73
2019-05-20T23:50:41.798Z,37.47
2019-05-20T23:53:10.799Z,37.27
2019-05-20T23:55:39.629Z,43.27
2019-05-20T23:58:08.572Z,39.47
